Raiatea — V7VA3 — position and weather

sailwx.info

Track history (hours):
 
Tides and Currents Weather Stations Pressure Air Temp Water Temp Dewpoint Dewpoint Depression Visibility Wind Speed Wind Dir Waves Ship Positions

Raiatea

Last reported at 2018-May-19 19:34 UTC. Time now 2018-May-25 05:32 UTC.
Position N 38°17' E 122°17'.

Length 292 m; draft 8.9 m.

Type: Ship. MMSI: 538004070.

Date/timePositionNaut miles runAvg speedWind from/ knotsBaromVisibWave heightAir tempDewpointWater temp
2018-May-19 19:34N 38°17' E 122°17'414.7
2018-May-19 19:18N 38°17' E 122°12'414.2
2018-May-19 19:00N 38°18' E 122°07'714.0
2018-May-19 18:30N 38°21' E 121°59'714.0
2018-May-19 18:00N 38°23' E 121°50'1914.3
2018-May-19 16:42N 38°23' E 121°26'3214.3
2018-May-19 14:26N 38°33' E 120°47'714.6
2018-May-19 13:56N 38°34' E 120°38'614.3
2018-May-19 13:29N 38°35' E 120°30'714.3
2018-May-19 13:00N 38°36' E 120°21'714.3
2018-May-19 12:30N 38°37' E 120°12'714.0
2018-May-19 12:00N 38°39' E 120°03'714.1
2018-May-19 11:30N 38°40' E 119°54'813.8
2018-May-19 10:56N 38°41' E 119°44'713.4
2018-May-19 10:27N 38°42' E 119°36'713.5
2018-May-19 09:58N 38°42' E 119°28'613.4
2018-May-19 09:30N 38°43' E 119°20'713.2
2018-May-19 09:00N 38°44' E 119°11'5 9.2
2018-May-19 08:30N 38°45' E 119°06'4 7.5
2018-May-19 08:00N 38°45' E 119°01'612.2
2018-May-19 07:30N 38°46' E 118°53'612.5
2018-May-19 07:00N 38°47' E 118°45'612.3
2018-May-19 06:30N 38°48' E 118°38'611.0
2018-May-19 06:00N 38°49' E 118°31'  
2018-May-14 13:20N 38°30' E 121°13'2111.5
2018-May-14 11:31N 38°22' E 121°38'012.4
2018-May-14 11:30N 38°22' E 121°38'611.4
2018-May-14 11:00N 38°20' E 121°45'611.6
2018-May-14 10:30N 38°18' E 121°52'611.7
2018-May-14 10:00N 38°15' E 121°58'611.8
2018-May-14 09:29N 38°13' E 122°05'611.9
2018-May-14 09:00N 38°10' E 122°12'611.4
2018-May-14 08:30N 38°11' E 122°19'611.3
2018-May-14 08:00N 38°12' E 122°26'611.2
2018-May-14 07:30N 38°14' E 122°33'  
2018-May-10 20:32N 23°18' E 121°56'012.2
2018-May-10 20:29N 23°18' E 121°56'712.1
2018-May-10 19:57N 23°12' E 121°54'1312.2
2018-May-10 18:52N 22°59' E 121°48'712.2
2018-May-10 18:18N 22°53' E 121°46'511.8
2018-May-10 17:51N 22°48' E 121°43'811.7
2018-May-10 17:09N 22°40' E 121°40'211.5
2018-May-10 16:56N 22°38' E 121°39'711.3
2018-May-10 16:17N 22°32' E 121°35'311.0
2018-May-10 16:00N 22°29' E 121°33'1511.4
2018-May-10 14:39N 22°16' E 121°24'212.1
2018-May-10 14:28N 22°14' E 121°23'612.2
2018-May-10 14:00N 22°10' E 121°19'612.2
2018-May-10 13:30N 22°04' E 121°18'  
Track history (hours):
 
Tides and Currents Weather Stations Pressure Air Temp Water Temp Dewpoint Dewpoint Depression Visibility Wind Speed Wind Dir Waves Ship Positions

Raiatea

Last reported at 2018-May-19 19:34 UTC. Time now 2018-May-25 05:32 UTC.
Position N 38°17' E 122°17'.

Length 292 m; draft 8.9 m.

Type: Ship. MMSI: 538004070.

Date/timePositionNaut miles runAvg speedWind from/ knotsBaromVisibWave heightAir tempDewpointWater temp
2018-May-19 19:34N 38°17' E 122°17'414.7
2018-May-19 19:18N 38°17' E 122°12'414.2
2018-May-19 19:00N 38°18' E 122°07'714.0
2018-May-19 18:30N 38°21' E 121°59'714.0
2018-May-19 18:00N 38°23' E 121°50'1914.3
2018-May-19 16:42N 38°23' E 121°26'3214.3
2018-May-19 14:26N 38°33' E 120°47'714.6
2018-May-19 13:56N 38°34' E 120°38'614.3
2018-May-19 13:29N 38°35' E 120°30'714.3
2018-May-19 13:00N 38°36' E 120°21'714.3
2018-May-19 12:30N 38°37' E 120°12'714.0
2018-May-19 12:00N 38°39' E 120°03'714.1
2018-May-19 11:30N 38°40' E 119°54'813.8
2018-May-19 10:56N 38°41' E 119°44'713.4
2018-May-19 10:27N 38°42' E 119°36'713.5
2018-May-19 09:58N 38°42' E 119°28'613.4
2018-May-19 09:30N 38°43' E 119°20'713.2
2018-May-19 09:00N 38°44' E 119°11'5 9.2
2018-May-19 08:30N 38°45' E 119°06'4 7.5
2018-May-19 08:00N 38°45' E 119°01'612.2
2018-May-19 07:30N 38°46' E 118°53'612.5
2018-May-19 07:00N 38°47' E 118°45'612.3
2018-May-19 06:30N 38°48' E 118°38'611.0
2018-May-19 06:00N 38°49' E 118°31'  
2018-May-14 13:20N 38°30' E 121°13'2111.5
2018-May-14 11:31N 38°22' E 121°38'012.4
2018-May-14 11:30N 38°22' E 121°38'611.4
2018-May-14 11:00N 38°20' E 121°45'611.6
2018-May-14 10:30N 38°18' E 121°52'611.7
2018-May-14 10:00N 38°15' E 121°58'611.8
2018-May-14 09:29N 38°13' E 122°05'611.9
2018-May-14 09:00N 38°10' E 122°12'611.4
2018-May-14 08:30N 38°11' E 122°19'611.3
2018-May-14 08:00N 38°12' E 122°26'611.2
2018-May-14 07:30N 38°14' E 122°33'  
2018-May-10 20:32N 23°18' E 121°56'012.2
2018-May-10 20:29N 23°18' E 121°56'712.1
2018-May-10 19:57N 23°12' E 121°54'1312.2
2018-May-10 18:52N 22°59' E 121°48'712.2
2018-May-10 18:18N 22°53' E 121°46'511.8
2018-May-10 17:51N 22°48' E 121°43'811.7
2018-May-10 17:09N 22°40' E 121°40'211.5
2018-May-10 16:56N 22°38' E 121°39'711.3
2018-May-10 16:17N 22°32' E 121°35'311.0
2018-May-10 16:00N 22°29' E 121°33'1511.4
2018-May-10 14:39N 22°16' E 121°24'212.1
2018-May-10 14:28N 22°14' E 121°23'612.2
2018-May-10 14:00N 22°10' E 121°19'612.2
2018-May-10 13:30N 22°04' E 121°18'  

Dump ship's entire track history